createdAt,value
2019-04-03T00:01:25.388Z,99.90
2019-04-03T00:03:56.584Z,99.90
2019-04-03T00:06:27.887Z,99.90
2019-04-03T00:08:59.268Z,99.90
2019-04-03T00:11:30.638Z,99.90
2019-04-03T00:14:01.872Z,99.90
2019-04-03T00:16:33.489Z,99.90
2019-04-03T00:19:05.182Z,99.90
2019-04-03T00:21:36.344Z,99.90
2019-04-03T00:24:09.218Z,99.90
2019-04-03T00:26:40.607Z,99.90
2019-04-03T00:29:11.624Z,99.90
2019-04-03T00:31:43.495Z,99.90
2019-04-03T00:34:15.621Z,99.90
2019-04-03T00:36:46.984Z,99.90
2019-04-03T00:39:18.458Z,99.90
2019-04-03T00:41:50.094Z,99.90
2019-04-03T00:44:24.261Z,99.90
2019-04-03T00:46:57.636Z,99.90
2019-04-03T00:49:29.515Z,99.90
2019-04-03T00:52:01.962Z,99.90
2019-04-03T00:54:34.421Z,99.90
2019-04-03T00:57:05.716Z,99.90
2019-04-03T00:59:37.180Z,99.90
2019-04-03T01:02:08.093Z,99.90
2019-04-03T01:04:39.181Z,99.90
2019-04-03T01:07:10.143Z,99.90
2019-04-03T01:09:40.939Z,99.90
2019-04-03T01:12:11.952Z,99.90
2019-04-03T01:14:43.589Z,99.90
2019-04-03T01:17:15.132Z,99.90
2019-04-03T01:19:46.505Z,99.90
2019-04-03T01:22:19.323Z,99.90
2019-04-03T01:24:50.471Z,99.90
2019-04-03T01:27:23.610Z,99.90
2019-04-03T01:29:55.172Z,99.90
2019-04-03T01:32:26.301Z,99.90
2019-04-03T01:34:58.282Z,99.90
2019-04-03T01:37:29.741Z,99.90
2019-04-03T01:40:02.042Z,99.90
2019-04-03T01:42:33.938Z,99.90
2019-04-03T01:45:06.249Z,99.90
2019-04-03T01:47:37.662Z,99.90
2019-04-03T01:50:09.311Z,99.90
2019-04-03T01:52:41.236Z,99.90
2019-04-03T01:55:12.638Z,99.90
2019-04-03T01:57:44.130Z,99.90
2019-04-03T02:00:15.978Z,99.90
2019-04-03T02:02:47.521Z,99.90
2019-04-03T02:05:19.181Z,99.90
2019-04-03T02:07:50.890Z,99.90
2019-04-03T02:10:25.573Z,99.90
2019-04-03T02:12:57.165Z,99.90
2019-04-03T02:15:28.610Z,99.90
2019-04-03T02:18:00.144Z,99.90
2019-04-03T02:20:32.379Z,99.90
2019-04-03T02:23:04.559Z,99.90
2019-04-03T02:25:36.061Z,99.90
2019-04-03T02:28:07.590Z,99.90
2019-04-03T02:30:39.392Z,99.90
2019-04-03T02:33:10.999Z,99.90
2019-04-03T02:35:42.672Z,99.90
2019-04-03T02:38:14.054Z,99.90
2019-04-03T02:40:45.528Z,99.90
2019-04-03T02:43:16.784Z,99.90
2019-04-03T02:45:48.401Z,99.90
2019-04-03T02:48:20.582Z,99.90
2019-04-03T02:50:52.224Z,99.90
2019-04-03T02:53:24.387Z,99.90
2019-04-03T02:55:58.870Z,99.90
2019-04-03T02:58:30.194Z,99.90
2019-04-03T03:01:05.349Z,99.90
2019-04-03T03:03:34.881Z,99.90
2019-04-03T03:06:06.397Z,99.90
2019-04-03T03:08:41.047Z,99.90
2019-04-03T03:11:11.661Z,99.90
2019-04-03T03:13:44.988Z,99.90
2019-04-03T03:16:17.930Z,99.90
2019-04-03T03:18:50.024Z,99.90
2019-04-03T03:21:22.844Z,99.90
2019-04-03T03:23:56.096Z,99.90
2019-04-03T03:26:28.206Z,99.90
2019-04-03T03:29:15.125Z,99.90
2019-04-03T03:31:59.924Z,99.90
2019-04-03T03:34:07.105Z,99.90
2019-04-03T03:36:40.380Z,99.90
2019-04-03T03:39:16.619Z,99.90
2019-04-03T03:41:49.375Z,99.90
2019-04-03T03:44:23.630Z,99.90
2019-04-03T03:46:59.354Z,99.90
2019-04-03T03:49:31.109Z,99.90
2019-04-03T03:52:04.100Z,99.90
2019-04-03T03:54:35.755Z,99.90
2019-04-03T03:57:08.275Z,99.90
2019-04-03T03:59:40.805Z,99.90
2019-04-03T04:02:12.450Z,99.90
2019-04-03T04:04:46.653Z,99.90
2019-04-03T04:07:17.381Z,99.90
2019-04-03T04:09:50.571Z,99.90
2019-04-03T04:12:22.250Z,99.80
2019-04-03T04:14:56.187Z,99.80
2019-04-03T04:17:28.182Z,99.70
2019-04-03T04:20:03.072Z,99.90
2019-04-03T04:22:35.690Z,99.90
2019-04-03T04:25:07.564Z,99.90
2019-04-03T04:27:40.395Z,99.90
2019-04-03T04:30:12.406Z,99.90
2019-04-03T04:32:46.214Z,99.90
2019-04-03T04:35:19.098Z,99.90
2019-04-03T04:37:50.542Z,99.90
2019-04-03T04:40:22.151Z,99.90
2019-04-03T04:42:53.733Z,99.90
2019-04-03T04:45:25.396Z,99.90
2019-04-03T04:47:58.377Z,99.90
2019-04-03T04:50:31.323Z,99.90
2019-04-03T04:53:03.334Z,99.90
2019-04-03T04:55:34.994Z,99.90
2019-04-03T04:58:07.015Z,99.90
2019-04-03T05:00:39.647Z,99.90
2019-04-03T05:03:10.411Z,99.90
2019-04-03T05:05:42.610Z,99.90
2019-04-03T05:08:13.177Z,99.90
2019-04-03T05:10:43.884Z,99.90
2019-04-03T05:13:16.241Z,99.90
2019-04-03T05:15:47.312Z,99.90
2019-04-03T05:18:17.966Z,99.90
2019-04-03T05:20:49.068Z,99.90
2019-04-03T05:23:21.482Z,99.90
2019-04-03T05:25:54.509Z,99.90
2019-04-03T05:28:25.171Z,99.90
2019-04-03T05:30:56.015Z,99.90
2019-04-03T05:33:26.778Z,99.90
2019-04-03T05:35:58.336Z,99.90
2019-04-03T05:38:29.063Z,99.90
2019-04-03T05:40:59.736Z,99.90
2019-04-03T05:43:31.411Z,99.90
2019-04-03T05:46:02.262Z,99.90
2019-04-03T05:48:35.482Z,99.90
2019-04-03T05:51:06.397Z,99.90
2019-04-03T05:53:38.075Z,99.90
2019-04-03T05:56:11.592Z,99.90
2019-04-03T05:58:53.734Z,99.90
2019-04-03T06:01:13.759Z,99.90
2019-04-03T06:03:45.744Z,99.90
2019-04-03T06:06:16.536Z,99.90
2019-04-03T06:08:49.110Z,99.90
2019-04-03T06:11:20.855Z,99.90
2019-04-03T06:13:51.816Z,99.90
2019-04-03T06:16:24.543Z,99.90
2019-04-03T06:18:54.790Z,99.90
2019-04-03T06:21:25.291Z,99.90
2019-04-03T06:23:56.408Z,99.90
2019-04-03T06:26:27.956Z,99.90
2019-04-03T06:29:00.058Z,99.90
2019-04-03T06:31:32.608Z,99.90
2019-04-03T06:34:03.420Z,99.90
2019-04-03T06:36:34.957Z,99.90
2019-04-03T06:39:08.984Z,99.90
2019-04-03T06:41:41.519Z,99.90
2019-04-03T06:44:12.385Z,99.90
2019-04-03T06:46:43.328Z,99.90
2019-04-03T06:49:13.915Z,99.90
2019-04-03T06:51:44.708Z,99.90
2019-04-03T06:54:15.594Z,99.90
2019-04-03T06:56:46.370Z,99.90
2019-04-03T06:59:18.276Z,99.90
2019-04-03T07:01:52.333Z,99.90
2019-04-03T07:04:22.675Z,99.90
2019-04-03T07:06:55.746Z,99.90
2019-04-03T07:09:34.088Z,99.90
2019-04-03T07:11:58.295Z,99.90
2019-04-03T07:14:30.628Z,99.90
2019-04-03T07:17:05.257Z,99.90
2019-04-03T07:19:36.014Z,99.90
2019-04-03T07:22:07.576Z,99.90
2019-04-03T07:24:39.625Z,99.90
2019-04-03T07:27:10.804Z,99.90
2019-04-03T07:29:42.827Z,99.90
2019-04-03T07:32:13.829Z,99.90
2019-04-03T07:34:44.490Z,99.90
2019-04-03T07:37:15.489Z,99.90
2019-04-03T07:39:47.713Z,99.90
2019-04-03T07:42:19.346Z,99.90
2019-04-03T07:44:50.593Z,99.90
2019-04-03T07:47:22.070Z,99.90
2019-04-03T07:49:53.906Z,99.90
2019-04-03T07:52:25.285Z,99.90
2019-04-03T07:54:58.186Z,99.90
2019-04-03T07:57:29.767Z,99.90
2019-04-03T08:00:01.300Z,99.90
2019-04-03T08:02:33.922Z,99.90
2019-04-03T08:05:06.265Z,99.90
2019-04-03T08:07:37.314Z,99.90
2019-04-03T08:10:09.926Z,99.90
2019-04-03T08:12:40.601Z,99.90
2019-04-03T08:15:13.570Z,99.90
2019-04-03T08:17:46.011Z,99.80
2019-04-03T08:20:19.874Z,99.80
2019-04-03T08:22:49.730Z,99.90
2019-04-03T08:25:20.729Z,99.90
2019-04-03T08:27:54.508Z,99.60
2019-04-03T08:30:25.169Z,99.90
2019-04-03T08:32:56.238Z,99.90
2019-04-03T08:35:27.163Z,99.90
2019-04-03T08:37:57.780Z,99.90
2019-04-03T08:40:29.314Z,99.90
2019-04-03T08:43:00.932Z,99.90
2019-04-03T08:45:32.159Z,99.90
2019-04-03T08:48:02.838Z,99.00
2019-04-03T08:50:35.292Z,97.70
2019-04-03T08:53:08.346Z,98.30
2019-04-03T08:55:38.822Z,98.20
2019-04-03T08:58:09.435Z,98.90
2019-04-03T09:00:40.711Z,98.20
2019-04-03T09:03:13.947Z,98.20
2019-04-03T09:05:43.737Z,98.70
2019-04-03T09:08:15.928Z,98.80
2019-04-03T09:10:48.358Z,97.10
2019-04-03T09:13:22.924Z,97.40
2019-04-03T09:15:51.497Z,98.30
2019-04-03T09:18:22.087Z,98.60
2019-04-03T09:20:52.789Z,98.40
2019-04-03T09:23:25.087Z,96.80
2019-04-03T09:25:55.827Z,97.20
2019-04-03T09:28:26.621Z,98.60
2019-04-03T09:30:57.308Z,99.20
2019-04-03T09:33:29.727Z,99.80
2019-04-03T09:36:03.937Z,99.10
2019-04-03T09:38:35.313Z,97.90
2019-04-03T09:41:05.318Z,98.50
2019-04-03T09:43:39.038Z,98.80
2019-04-03T09:46:09.218Z,98.90
2019-04-03T09:48:39.892Z,99.10
2019-04-03T09:51:10.648Z,99.10
2019-04-03T09:53:41.722Z,99.30
2019-04-03T09:56:13.753Z,99.10
2019-04-03T09:58:46.569Z,99.20
2019-04-03T10:01:20.810Z,99.80
2019-04-03T10:03:55.346Z,97.80
2019-04-03T10:06:25.512Z,98.00
2019-04-03T10:08:56.814Z,97.80
2019-04-03T10:11:28.621Z,97.90
2019-04-03T10:13:59.850Z,98.60
2019-04-03T10:16:30.669Z,97.50
2019-04-03T10:19:01.737Z,98.30
2019-04-03T10:21:33.331Z,97.30
2019-04-03T10:24:04.761Z,97.10
2019-04-03T10:26:39.450Z,97.50
2019-04-03T10:29:09.271Z,98.10
2019-04-03T10:31:39.972Z,97.80
2019-04-03T10:34:13.268Z,98.10
2019-04-03T10:36:43.746Z,98.30
2019-04-03T10:39:15.942Z,98.10
2019-04-03T10:41:46.982Z,98.50
2019-04-03T10:44:18.294Z,99.10
2019-04-03T10:46:50.256Z,99.40
2019-04-03T10:49:21.885Z,98.00
2019-04-03T10:51:53.947Z,97.40
2019-04-03T10:54:25.796Z,98.10
2019-04-03T10:56:57.738Z,98.10
2019-04-03T10:59:29.819Z,96.60
2019-04-03T11:02:00.887Z,94.60
2019-04-03T11:04:31.926Z,95.00
2019-04-03T11:07:03.353Z,94.80
2019-04-03T11:09:35.282Z,95.20
2019-04-03T11:12:09.673Z,93.70
2019-04-03T11:14:40.022Z,93.80
2019-04-03T11:17:11.064Z,94.30
2019-04-03T11:19:44.343Z,93.10
2019-04-03T11:22:16.369Z,93.40
2019-04-03T11:24:47.602Z,92.20
2019-04-03T11:27:18.463Z,91.40
2019-04-03T11:29:49.066Z,91.40
2019-04-03T11:32:21.572Z,90.80
2019-04-03T11:34:53.772Z,90.90
2019-04-03T11:37:26.311Z,92.00
2019-04-03T11:40:04.277Z,91.30
2019-04-03T11:42:37.142Z,93.00
2019-04-03T11:45:09.053Z,92.20
2019-04-03T11:47:39.803Z,93.50
2019-04-03T11:50:11.405Z,93.20
2019-04-03T11:52:42.277Z,92.10
2019-04-03T11:55:13.467Z,91.30
2019-04-03T11:57:44.154Z,90.50
2019-04-03T12:00:21.983Z,90.70
2019-04-03T12:02:52.615Z,88.70
2019-04-03T12:05:23.168Z,86.10
2019-04-03T12:07:55.456Z,87.10
2019-04-03T12:10:27.872Z,83.70
2019-04-03T12:12:59.283Z,83.30
2019-04-03T12:15:33.700Z,83.40
2019-04-03T12:18:02.889Z,82.40
2019-04-03T12:20:34.167Z,82.00
2019-04-03T12:23:04.980Z,81.90
2019-04-03T12:25:38.636Z,82.40
2019-04-03T12:28:08.118Z,82.30
2019-04-03T12:30:38.744Z,82.40
2019-04-03T12:33:09.416Z,82.20
2019-04-03T12:35:42.310Z,82.20
2019-04-03T12:38:12.590Z,81.80
2019-04-03T12:40:43.319Z,82.80
2019-04-03T12:43:15.403Z,82.80
2019-04-03T12:45:48.013Z,83.30
2019-04-03T12:48:19.584Z,83.90
2019-04-03T12:50:50.241Z,84.40
2019-04-03T12:53:21.340Z,84.90
2019-04-03T12:55:56.604Z,84.60
2019-04-03T12:58:27.034Z,84.30
2019-04-03T13:00:58.106Z,82.30
2019-04-03T13:03:29.303Z,81.80
2019-04-03T13:06:00.040Z,81.60
2019-04-03T13:08:31.667Z,81.20
2019-04-03T13:11:03.382Z,81.10
2019-04-03T13:13:34.929Z,81.30
2019-04-03T13:16:09.275Z,81.30
2019-04-03T13:18:39.488Z,82.00
2019-04-03T13:21:10.151Z,81.60
2019-04-03T13:23:40.935Z,80.00
2019-04-03T13:26:11.702Z,79.90
2019-04-03T13:28:42.666Z,80.90
2019-04-03T13:31:15.021Z,81.60
2019-04-03T13:33:45.583Z,81.80
2019-04-03T13:36:16.986Z,82.70
2019-04-03T13:38:50.873Z,82.90
2019-04-03T13:41:21.309Z,82.90
2019-04-03T13:43:53.924Z,83.10
2019-04-03T13:46:24.471Z,83.10
2019-04-03T13:48:55.153Z,83.50
2019-04-03T13:51:26.691Z,83.90
2019-04-03T13:53:57.904Z,84.20
2019-04-03T13:56:28.771Z,84.00
2019-04-03T13:58:59.566Z,83.90
2019-04-03T14:01:30.401Z,84.30
2019-04-03T14:04:01.608Z,84.30
2019-04-03T14:06:35.348Z,84.10
2019-04-03T14:09:07.504Z,85.00
2019-04-03T14:11:38.729Z,83.70
2019-04-03T14:14:09.829Z,83.40
2019-04-03T14:16:40.778Z,82.90
2019-04-03T14:19:12.678Z,83.00
2019-04-03T14:21:45.365Z,81.90
2019-04-03T14:24:18.645Z,80.90
2019-04-03T14:26:51.163Z,81.10
2019-04-03T14:29:24.291Z,80.10
2019-04-03T14:31:54.862Z,80.30
2019-04-03T14:34:25.595Z,80.00
2019-04-03T14:36:57.795Z,79.90
2019-04-03T14:39:28.662Z,79.80
2019-04-03T14:41:59.764Z,79.40
2019-04-03T14:44:30.902Z,79.60
2019-04-03T14:47:02.152Z,80.10
2019-04-03T14:49:34.087Z,80.50
2019-04-03T14:52:07.484Z,80.30
2019-04-03T14:54:38.784Z,79.90
2019-04-03T14:57:19.766Z,80.10
2019-04-03T14:59:43.655Z,81.10
2019-04-03T15:02:14.870Z,80.40
2019-04-03T15:04:46.639Z,81.30
2019-04-03T15:07:18.738Z,79.40
2019-04-03T15:09:53.526Z,79.30
2019-04-03T15:12:24.278Z,79.60
2019-04-03T15:14:55.603Z,80.80
2019-04-03T15:17:26.599Z,80.40
2019-04-03T15:19:57.326Z,80.00
2019-04-03T15:22:28.088Z,79.60
2019-04-03T15:24:58.742Z,79.90
2019-04-03T15:27:29.742Z,80.30
2019-04-03T15:30:00.335Z,79.70
2019-04-03T15:32:31.381Z,78.70
2019-04-03T15:35:02.222Z,78.80
2019-04-03T15:37:34.122Z,79.60
2019-04-03T15:40:05.751Z,79.90
2019-04-03T15:42:38.546Z,80.70
2019-04-03T15:45:12.497Z,80.30
2019-04-03T15:47:46.995Z,80.80
2019-04-03T15:50:17.158Z,81.50
2019-04-03T15:52:50.655Z,81.10
2019-04-03T15:55:24.206Z,82.00
2019-04-03T15:57:53.980Z,81.80
2019-04-03T16:00:27.446Z,81.90
2019-04-03T16:02:58.561Z,82.70
2019-04-03T16:05:33.883Z,82.80
2019-04-03T16:08:03.155Z,83.80
2019-04-03T16:10:34.006Z,84.10
2019-04-03T16:13:04.783Z,84.40
2019-04-03T16:15:36.866Z,84.80
2019-04-03T16:18:08.309Z,85.20
2019-04-03T16:20:39.578Z,85.10
2019-04-03T16:23:10.686Z,85.10
2019-04-03T16:25:41.496Z,85.20
2019-04-03T16:28:13.671Z,85.00
2019-04-03T16:30:47.254Z,85.30
2019-04-03T16:33:21.390Z,85.40
2019-04-03T16:35:51.584Z,85.30
2019-04-03T16:38:27.696Z,85.90
2019-04-03T16:40:56.805Z,85.60
2019-04-03T16:43:27.489Z,85.90
2019-04-03T16:45:58.236Z,85.30
2019-04-03T16:48:28.979Z,85.40
2019-04-03T16:51:00.730Z,85.50
2019-04-03T16:53:32.169Z,86.00
2019-04-03T16:56:05.383Z,86.50
2019-04-03T16:58:35.202Z,86.30
2019-04-03T17:01:06.313Z,86.20
2019-04-03T17:03:37.706Z,86.20
2019-04-03T17:06:11.300Z,86.40
2019-04-03T17:08:42.310Z,86.50
2019-04-03T17:11:13.058Z,86.80
2019-04-03T17:13:44.061Z,87.00
2019-04-03T17:16:15.307Z,87.10
2019-04-03T17:18:47.958Z,87.40
2019-04-03T17:21:21.611Z,87.80
2019-04-03T17:23:53.592Z,88.00
2019-04-03T17:26:24.387Z,88.10
2019-04-03T17:29:04.904Z,88.00
2019-04-03T17:31:30.031Z,88.30
2019-04-03T17:34:00.714Z,88.40
2019-04-03T17:36:31.548Z,88.40
2019-04-03T17:39:04.647Z,88.50
2019-04-03T17:41:37.701Z,88.30
2019-04-03T17:44:07.345Z,88.50
2019-04-03T17:46:40.050Z,88.80
2019-04-03T17:49:12.973Z,88.60
2019-04-03T17:51:43.610Z,88.90
2019-04-03T17:54:14.487Z,89.40
2019-04-03T17:56:46.004Z,89.80
2019-04-03T17:59:18.344Z,89.70
2019-04-03T18:01:52.480Z,89.90
2019-04-03T18:04:23.130Z,90.10
2019-04-03T18:06:54.017Z,90.00
2019-04-03T18:09:24.866Z,90.00
2019-04-03T18:11:57.983Z,90.30
2019-04-03T18:14:29.011Z,90.20
2019-04-03T18:17:01.314Z,90.30
2019-04-03T18:19:37.639Z,90.30
2019-04-03T18:22:06.913Z,90.40
2019-04-03T18:24:38.193Z,89.70
2019-04-03T18:27:09.460Z,90.00
2019-04-03T18:29:40.855Z,89.80
2019-04-03T18:32:11.822Z,90.20
2019-04-03T18:34:42.945Z,90.00
2019-04-03T18:37:14.257Z,90.10
2019-04-03T18:39:45.637Z,90.20
2019-04-03T18:42:18.481Z,90.20
2019-04-03T18:44:51.522Z,90.10
2019-04-03T18:47:23.861Z,89.90
2019-04-03T18:49:55.909Z,89.90
2019-04-03T18:52:30.442Z,90.10
2019-04-03T18:55:02.730Z,90.30
2019-04-03T18:57:34.681Z,90.30
2019-04-03T19:00:07.412Z,90.40
2019-04-03T19:02:39.835Z,90.50
2019-04-03T19:05:14.040Z,90.70
2019-04-03T19:07:45.762Z,90.70
2019-04-03T19:10:18.445Z,90.50
2019-04-03T19:12:51.169Z,90.70
2019-04-03T19:15:23.345Z,90.70
2019-04-03T19:18:00.318Z,90.90
2019-04-03T19:20:31.453Z,91.10
2019-04-03T19:23:06.773Z,91.20
2019-04-03T19:25:38.071Z,91.30
2019-04-03T19:28:09.790Z,91.50
2019-04-03T19:30:41.474Z,91.60
2019-04-03T19:33:14.044Z,91.60
2019-04-03T19:35:46.407Z,91.70
2019-04-03T19:38:19.073Z,91.90
2019-04-03T19:40:50.651Z,92.10
2019-04-03T19:43:22.593Z,92.00
2019-04-03T19:45:54.667Z,92.20
2019-04-03T19:48:27.771Z,92.60
2019-04-03T19:51:02.703Z,93.40
2019-04-03T19:53:35.580Z,93.90
2019-04-03T19:56:05.941Z,94.20
2019-04-03T19:58:38.053Z,94.30
2019-04-03T20:01:10.436Z,94.30
2019-04-03T20:03:44.068Z,94.50
2019-04-03T20:06:15.936Z,94.50
2019-04-03T20:08:47.204Z,94.90
2019-04-03T20:11:18.965Z,95.00
2019-04-03T20:13:50.403Z,95.00
2019-04-03T20:16:24.339Z,95.00
2019-04-03T20:18:56.523Z,95.10
2019-04-03T20:21:30.845Z,95.30
2019-04-03T20:24:02.966Z,95.40
2019-04-03T20:26:34.563Z,95.50
2019-04-03T20:29:06.852Z,95.60
2019-04-03T20:31:40.738Z,95.70
2019-04-03T20:34:13.084Z,96.10
2019-04-03T20:36:45.215Z,96.20
2019-04-03T20:39:17.544Z,96.30
2019-04-03T20:41:49.295Z,96.60
2019-04-03T20:44:21.323Z,96.60
2019-04-03T20:46:54.127Z,96.80
2019-04-03T20:49:26.967Z,97.00
2019-04-03T20:51:58.341Z,97.10
2019-04-03T20:54:30.856Z,97.30
2019-04-03T20:57:03.043Z,97.40
2019-04-03T20:59:35.516Z,97.30
2019-04-03T21:02:10.679Z,96.80
2019-04-03T21:04:43.233Z,96.50
2019-04-03T21:07:14.871Z,96.40
2019-04-03T21:09:48.784Z,96.40
2019-04-03T21:12:20.443Z,96.10
2019-04-03T21:14:52.869Z,94.70
2019-04-03T21:17:24.534Z,94.30
2019-04-03T21:19:56.250Z,94.60
2019-04-03T21:22:29.787Z,94.70
2019-04-03T21:25:05.090Z,94.50
2019-04-03T21:27:35.575Z,95.20
2019-04-03T21:30:08.298Z,95.80
2019-04-03T21:32:40.232Z,96.20
2019-04-03T21:35:11.900Z,96.50
2019-04-03T21:37:43.030Z,96.90
2019-04-03T21:40:17.755Z,97.00
2019-04-03T21:42:49.796Z,97.20
2019-04-03T21:45:21.512Z,97.60
2019-04-03T21:47:53.537Z,97.50
2019-04-03T21:50:25.656Z,97.80
2019-04-03T21:52:57.382Z,98.40
2019-04-03T21:55:30.742Z,98.70
2019-04-03T21:58:02.246Z,98.80
2019-04-03T22:01:17.739Z,99.00
2019-04-03T22:03:51.329Z,99.20
2019-04-03T22:06:22.673Z,99.40
2019-04-03T22:08:54.044Z,99.60
2019-04-03T22:11:25.887Z,99.60
2019-04-03T22:13:57.817Z,99.60
2019-04-03T22:16:29.520Z,99.40
2019-04-03T22:19:02.531Z,99.70
2019-04-03T22:21:48.227Z,99.70
2019-04-03T22:24:21.247Z,99.90
2019-04-03T22:26:53.234Z,99.90
2019-04-03T22:29:31.859Z,99.60
2019-04-03T22:32:04.408Z,99.30
2019-04-03T22:34:36.493Z,99.40
2019-04-03T22:37:08.739Z,99.10
2019-04-03T22:39:40.508Z,99.20
2019-04-03T22:42:14.730Z,99.50
2019-04-03T22:44:47.886Z,99.80
2019-04-03T22:47:19.513Z,99.80
2019-04-03T22:49:52.146Z,99.90
2019-04-03T22:52:23.814Z,99.90
2019-04-03T22:54:56.241Z,99.90
2019-04-03T22:57:28.109Z,99.90
2019-04-03T22:59:59.954Z,99.90
2019-04-03T23:02:32.376Z,99.90
2019-04-03T23:05:08.955Z,99.90
2019-04-03T23:07:41.263Z,99.90
2019-04-03T23:10:13.679Z,99.90
2019-04-03T23:12:46.450Z,99.70
2019-04-03T23:15:18.188Z,99.90
2019-04-03T23:17:49.587Z,99.90
2019-04-03T23:20:22.077Z,99.90
2019-04-03T23:22:56.532Z,99.90
2019-04-03T23:25:29.743Z,99.90
2019-04-03T23:28:03.028Z,99.90
2019-04-03T23:30:36.192Z,99.90
2019-04-03T23:33:07.753Z,99.90
2019-04-03T23:35:39.412Z,99.90
2019-04-03T23:38:10.711Z,99.90
2019-04-03T23:40:43.593Z,99.90
2019-04-03T23:43:15.961Z,99.90
2019-04-03T23:45:47.415Z,99.90
2019-04-03T23:48:22.344Z,99.90
2019-04-03T23:50:57.621Z,99.90
2019-04-03T23:53:31.944Z,99.90
2019-04-03T23:56:05.498Z,99.90
2019-04-03T23:58:39.925Z,99.90
